Flight Track Log - Related Links

Times and Time Zones

All times are in EDT time to prevent confusion due to time zone crossing. See the N2320M flight status page for this flight to view local times or setup timezone preferences in your user account.

Time Position Orientation Groundspeed Altitude Reporting Facility
EDT Latitude Longitude Course Direction KTS MPH feet Rate Location/Type
Sat 09:44:48 PM 42.9333 -78.7333 228° Southwest 102 117 1,100  Level Buffalo TRACON
Sat 09:45:54 PM 42.9000 -78.7833 228° Southwest 109 125 2,400 1,000 Climbing Buffalo TRACON
Sat 09:46:54 PM 42.9000 -78.8167 270° West 110 127 3,200 800 Climbing Buffalo TRACON
Sat 09:47:54 PM 42.8833 -78.8500 236° Southwest 127 146 4,000 400 Climbing Buffalo TRACON
Sat 09:48:54 PM 42.8500 -78.9000 228° Southwest 149 171 4,000  Level Buffalo TRACON
Sat 09:49:54 PM 42.8333 -78.9500 246° West 148 170 4,000  Level Buffalo TRACON
Sat 09:50:54 PM 42.8167 -79.0000 246° West 143 165 4,000  Level Buffalo TRACON
Sat 09:51:54 PM 42.8000 -79.0333 236° Southwest 142 163 4,000  Level Buffalo TRACON
Sat 09:52:54 PM 42.7667 -79.0833 228° Southwest 142 163 4,000  Level Buffalo TRACON
Sat 09:53:54 PM 42.7333 -79.1167 216° Southwest 143 165 4,000  Level Buffalo TRACON
Sat 09:54:54 PM 42.7167 -79.1667 246° West 144 166 4,000  Level Buffalo TRACON
Sat 09:56:00 PM 42.6839 -79.2089 224° Southwest  Level FlightAware Approximate
Sat 10:03:00 PM 42.4747 -79.4819 233° Southwest  Level FlightAware Approximate
Sat 10:04:00 PM 42.4498 -79.5261 233° Southwest  Level FlightAware Approximate
Sat 10:05:00 PM 42.4249 -79.5702 233° Southwest  Level FlightAware Approximate
Sat 10:06:00 PM 42.3999 -79.6143 233° Southwest  Level FlightAware Approximate
Sat 10:07:00 PM 42.3750 -79.6583 233° Southwest  Level FlightAware Approximate
Sat 10:08:00 PM 42.3500 -79.7023 232° Southwest  Level FlightAware Approximate
Sat 10:09:00 PM 42.3250 -79.7463 232° Southwest  Level FlightAware Approximate
Sat 10:10:00 PM 42.3007 -79.7890 232° Southwest  Level FlightAware Approximate
Sat 10:11:00 PM 42.2763 -79.8317 232° Southwest  Level FlightAware Approximate
Sat 10:12:00 PM 42.2519 -79.8744 232° Southwest  Level FlightAware Approximate
Sat 10:13:00 PM 42.2276 -79.9170 232° Southwest  Level FlightAware Approximate
Sat 10:14:00 PM 42.2032 -79.9596 232° Southwest  Level FlightAware Approximate
Sat 10:15:00 PM 42.1787 -80.0022 232° Southwest  Level FlightAware Approximate
Sat 10:16:00 PM 42.1543 -80.0447 232° Southwest  Level FlightAware Approximate
Sat 10:17:00 PM 42.1299 -80.0872 232° Southwest  Level FlightAware Approximate
Sat 10:18:00 PM 42.1054 -80.1297 232° Southwest  Level FlightAware Approximate
Sat 10:19:00 PM 42.0809 -80.1722 232° Southwest  Level FlightAware Approximate
Sat 10:20:00 PM 42.0564 -80.2146 232° Southwest  Level FlightAware Approximate
Sat 10:21:00 PM 42.0319 -80.2570 232° Southwest  Level FlightAware Approximate
Sat 10:22:00 PM 42.0098 -80.3014 243° Southwest  Level FlightAware Approximate
Sat 10:23:00 PM 41.9917 -80.3492 243° Southwest  Level FlightAware Approximate
Sat 10:24:00 PM 41.9736 -80.3969 243° Southwest  Level FlightAware Approximate
Sat 10:25:00 PM 41.9554 -80.4447 243° Southwest  Level FlightAware Approximate
Sat 10:26:00 PM 41.9372 -80.4924 243° Southwest  Level FlightAware Approximate
Sat 10:27:00 PM 41.9190 -80.5401 243° Southwest  Level FlightAware Approximate
Sat 10:28:00 PM 41.9008 -80.5878 243° Southwest  Level FlightAware Approximate
Sat 10:29:00 PM 41.8826 -80.6355 246° West  Level FlightAware Approximate
Sat 10:30:00 PM 41.8664 -80.6844 246° West  Level FlightAware Approximate
Sat 10:30:57 PM 41.9117 -80.8147 246° West 148 170 4,000  Level Cleveland Center
Sat 10:31:00 PM 41.8502 -80.7333 246° West  Level FlightAware Approximate
Sat 10:31:52 PM 41.8931 -80.8592 241° Southwest 147 169 4,000  Level Cleveland Center
Sat 10:32:00 PM 41.8339 -80.7822 246° West  Level FlightAware Approximate
Sat 10:32:52 PM 41.8742 -80.9067 242° Southwest 149 171 4,000  Level Cleveland Center
Sat 10:33:00 PM 41.8176 -80.8311 246° West  Level FlightAware Approximate
Sat 10:33:53 PM 41.8531 -80.9539 239° Southwest 147 169 4,000  Level Cleveland Center
Sat 10:34:00 PM 41.8013 -80.8799 246° West  Level FlightAware Approximate
Sat 10:34:53 PM 41.8342 -81.0011 242° Southwest 146 168 4,100  Level Cleveland Center
Sat 10:35:00 PM 41.7850 -80.9287 246° West  Level FlightAware Approximate
Sat 10:35:54 PM 41.8131 -81.0511 240° Southwest 148 170 4,100  Level Cleveland Center
Sat 10:36:00 PM 41.7686 -80.9775 246° West  Level FlightAware Approximate
Sat 10:36:55 PM 41.7961 -81.1011 246° West 148 170 4,000  Level Cleveland Center
Sat 10:37:55 PM 41.7750 -81.1511 240° Southwest 148 170 4,000  Level Cleveland Center
Sat 10:38:50 PM 41.7561 -81.1900 237° Southwest 150 173 4,000  Level Cleveland Center
Sat 10:39:50 PM 41.7372 -81.2397 243° Southwest 150 173 4,000  Level Cleveland Center
Sat 10:40:51 PM 41.7139 -81.2897 238° Southwest 147 169 4,000  Level Cleveland Center
Sat 10:41:58 PM 41.6947 -81.3422 244° Southwest 151 174 4,000  Level Cleveland Center
Sat 10:42:52 PM 41.6736 -81.3892 239° Southwest 151 174 4,000  Level Cleveland Center
Sat 10:43:53 PM 41.6544 -81.4392 243° Southwest 150 173 4,000  Level Cleveland Center
Sat 10:44:53 PM 41.6333 -81.4861 239° Southwest 150 173 4,000  Level Cleveland Center
Sat 10:45:54 PM 41.6142 -81.5358 243° Southwest 150 173 4,000  Level Cleveland Center
Sat 10:46:55 PM 41.5928 -81.5825 239° Southwest 149 171 4,000  Level Cleveland Center
Sat 10:47:55 PM 41.5736 -81.6322 243° Southwest 150 173 4,000  Level Cleveland Center
Sat 10:48:56 PM 41.5503 -81.6847 239° Southwest 152 175 4,000  Level Cleveland Center
Sat 10:49:56 PM 41.5311 -81.7369 244° Southwest 153 176 4,000  Level Cleveland Center
Sat 10:50:57 PM 41.5097 -81.7867 240° Southwest 152 175 4,000  Level Cleveland Center
Sat 10:51:58 PM 41.4903 -81.8333 241° Southwest 152 175 4,000  Level Cleveland Center
Sat 10:52:58 PM 41.4711 -81.8800 241° Southwest 153 176 4,000  Level Cleveland Center
Sat 10:53:59 PM 41.4475 -81.9322 239° Southwest 151 174 4,000  Level Cleveland Center

Login

Don't have an account? Register now (free) for customized features, flight alerts, and more!